createdAt,value
2023-04-05T00:00:04.438Z,0.00
2023-04-05T00:01:04.427Z,0.00
2023-04-05T00:02:04.544Z,0.00
2023-04-05T00:03:04.501Z,0.00
2023-04-05T00:04:04.505Z,0.00
2023-04-05T00:05:04.384Z,0.00
2023-04-05T00:06:04.380Z,0.00
2023-04-05T00:07:04.357Z,0.00
2023-04-05T00:08:04.355Z,0.00
2023-04-05T00:09:04.334Z,0.00
2023-04-05T00:10:04.328Z,0.00
2023-04-05T00:11:04.322Z,0.00
2023-04-05T00:12:04.304Z,0.00
2023-04-05T00:13:04.299Z,0.00
2023-04-05T00:14:04.288Z,0.00
2023-04-05T00:15:04.275Z,0.00
2023-04-05T00:16:04.274Z,0.00
2023-04-05T00:17:04.266Z,0.00
2023-04-05T00:18:04.272Z,0.00
2023-04-05T00:19:04.225Z,0.00
2023-04-05T00:20:04.224Z,0.00
2023-04-05T00:21:04.212Z,0.00
2023-04-05T00:22:04.221Z,0.00
2023-04-05T00:23:04.180Z,0.00
2023-04-05T00:24:04.175Z,0.00
2023-04-05T00:25:04.190Z,0.00
2023-04-05T00:26:04.152Z,0.00
2023-04-05T00:27:04.144Z,0.00
2023-04-05T00:28:04.129Z,0.00
2023-04-05T00:29:04.117Z,0.00
2023-04-05T00:30:04.105Z,0.00
2023-04-05T00:31:04.093Z,0.00
2023-04-05T00:32:04.106Z,0.00
2023-04-05T00:33:04.096Z,0.00
2023-04-05T00:34:04.087Z,0.00
2023-04-05T00:35:04.047Z,0.00
2023-04-05T00:36:04.071Z,0.00
2023-04-05T00:37:04.031Z,0.00
2023-04-05T00:38:04.019Z,0.00
2023-04-05T00:39:04.006Z,0.00
2023-04-05T00:40:03.992Z,0.00
2023-04-05T00:41:03.990Z,0.00
2023-04-05T00:42:03.977Z,0.00
2023-04-05T00:43:03.977Z,0.00
2023-04-05T00:44:04.015Z,0.00
2023-04-05T00:45:03.948Z,0.00
2023-04-05T00:46:03.977Z,0.00
2023-04-05T00:47:03.922Z,0.00
2023-04-05T00:48:03.941Z,0.00
2023-04-05T00:49:03.899Z,0.00
2023-04-05T00:50:03.917Z,0.00
2023-04-05T00:51:03.883Z,0.00
2023-04-05T00:52:03.865Z,0.00
2023-04-05T00:53:03.852Z,0.00
2023-04-05T00:54:03.841Z,0.00
2023-04-05T00:55:03.836Z,0.00
2023-04-05T00:56:03.824Z,0.00
2023-04-05T00:57:03.806Z,0.00
2023-04-05T00:58:03.793Z,0.00
2023-04-05T00:59:03.803Z,0.00
2023-04-05T01:00:03.799Z,0.00
2023-04-05T01:01:03.782Z,0.00
2023-04-05T01:02:03.749Z,0.00
2023-04-05T01:03:03.782Z,0.00
2023-04-05T01:04:03.901Z,0.00
2023-04-05T01:05:03.720Z,0.00
2023-04-05T01:06:03.731Z,0.00
2023-04-05T01:07:03.694Z,0.00
2023-04-05T01:08:03.682Z,0.00
2023-04-05T01:09:03.675Z,0.00
2023-04-05T01:10:03.660Z,0.00
2023-04-05T01:11:03.650Z,0.00
2023-04-05T01:12:03.648Z,0.00
2023-04-05T01:13:03.626Z,0.00
2023-04-05T01:14:03.617Z,0.00
2023-04-05T01:15:03.604Z,0.00
2023-04-05T01:16:03.605Z,0.00
2023-04-05T01:17:03.586Z,0.00
2023-04-05T01:18:03.605Z,0.00
2023-04-05T01:19:03.561Z,0.00
2023-04-05T01:20:03.547Z,0.00
2023-04-05T01:21:03.536Z,0.00
2023-04-05T01:22:03.543Z,0.00
2023-04-05T01:23:03.520Z,0.00
2023-04-05T01:24:03.504Z,0.00
2023-04-05T01:25:03.491Z,0.00
2023-04-05T01:26:03.478Z,0.00
2023-04-05T01:27:03.471Z,0.00
2023-04-05T01:28:03.457Z,0.00
2023-04-05T01:29:03.446Z,0.00
2023-04-05T01:30:03.433Z,0.00
2023-04-05T01:31:03.466Z,0.00
2023-04-05T01:32:03.414Z,0.00
2023-04-05T01:33:03.421Z,0.00
2023-04-05T01:34:03.404Z,0.00
2023-04-05T01:35:03.379Z,0.00
2023-04-05T01:36:03.425Z,0.00
2023-04-05T01:37:03.360Z,0.00
2023-04-05T01:38:03.380Z,0.00
2023-04-05T01:39:03.341Z,0.00
2023-04-05T01:40:03.320Z,0.00
2023-04-05T01:41:03.314Z,0.00
2023-04-05T01:42:03.304Z,0.00
2023-04-05T01:43:03.292Z,0.00
2023-04-05T01:44:03.309Z,0.00
2023-04-05T01:45:03.267Z,0.00
2023-04-05T01:46:03.314Z,0.00
2023-04-05T01:47:03.247Z,0.00
2023-04-05T01:48:03.289Z,0.00
2023-04-05T01:49:03.225Z,0.00
2023-04-05T01:50:03.221Z,0.00
2023-04-05T01:51:03.205Z,0.00
2023-04-05T01:52:03.188Z,0.00
2023-04-05T01:53:03.182Z,0.00
2023-04-05T01:54:03.221Z,0.00
2023-04-05T01:55:03.159Z,0.00
2023-04-05T01:56:03.152Z,0.00
2023-04-05T01:57:03.142Z,0.00
2023-04-05T01:58:03.130Z,0.00
2023-04-05T01:59:03.156Z,0.00
2023-04-05T02:00:03.104Z,0.00
2023-04-05T02:01:03.124Z,0.00
2023-04-05T02:02:03.074Z,0.00
2023-04-05T02:03:03.126Z,0.00
2023-04-05T02:04:03.059Z,0.00
2023-04-05T02:05:03.088Z,0.00
2023-04-05T02:06:03.028Z,0.00
2023-04-05T02:07:03.045Z,0.00
2023-04-05T02:08:03.028Z,0.00
2023-04-05T02:09:03.004Z,0.00
2023-04-05T02:10:03.014Z,0.00
2023-04-05T02:11:02.981Z,0.00
2023-04-05T02:12:02.973Z,0.00
2023-04-05T02:13:02.953Z,0.00
2023-04-05T02:14:02.952Z,0.00
2023-04-05T02:15:02.935Z,0.00
2023-04-05T02:16:02.968Z,0.00
2023-04-05T02:17:02.920Z,0.00
2023-04-05T02:18:02.927Z,0.00
2023-04-05T02:19:02.888Z,0.00
2023-04-05T02:20:02.874Z,0.00
2023-04-05T02:21:02.884Z,0.00
2023-04-05T02:22:02.857Z,0.00
2023-04-05T02:23:02.843Z,0.00
2023-04-05T02:24:02.830Z,0.00
2023-04-05T02:25:02.824Z,0.00
2023-04-05T02:26:02.832Z,0.00
2023-04-05T02:27:02.803Z,0.00
2023-04-05T02:28:02.787Z,0.00
2023-04-05T02:29:02.778Z,0.00
2023-04-05T02:30:02.796Z,0.00
2023-04-05T02:31:02.760Z,0.00
2023-04-05T02:32:02.805Z,0.00
2023-04-05T02:33:02.765Z,0.00
2023-04-05T02:34:02.724Z,0.00
2023-04-05T02:35:02.713Z,0.00
2023-04-05T02:36:02.746Z,0.00
2023-04-05T02:37:02.708Z,0.00
2023-04-05T02:38:02.710Z,0.00
2023-04-05T02:39:02.712Z,0.00
2023-04-05T02:40:02.663Z,0.00
2023-04-05T02:41:02.655Z,0.00
2023-04-05T02:42:02.660Z,0.00
2023-04-05T02:43:02.623Z,0.00
2023-04-05T02:44:02.621Z,0.00
2023-04-05T02:45:02.618Z,0.00
2023-04-05T02:46:02.672Z,0.00
2023-04-05T02:47:02.594Z,0.00
2023-04-05T02:48:02.582Z,0.00
2023-04-05T02:49:02.566Z,0.00
2023-04-05T02:50:02.582Z,0.00
2023-04-05T02:51:02.546Z,0.00
2023-04-05T02:52:02.524Z,0.00
2023-04-05T02:53:02.513Z,0.00
2023-04-05T02:54:02.497Z,0.00
2023-04-05T02:55:02.490Z,0.00
2023-04-05T02:56:02.480Z,0.00
2023-04-05T02:57:02.481Z,0.00
2023-04-05T02:58:02.480Z,0.00
2023-04-05T02:59:02.548Z,0.00
2023-04-05T03:00:02.439Z,0.00
2023-04-05T03:01:02.442Z,0.00
2023-04-05T03:02:02.408Z,0.00
2023-04-05T03:03:02.475Z,0.00
2023-04-05T03:04:02.451Z,0.00
2023-04-05T03:05:02.443Z,0.00
2023-04-05T03:06:02.364Z,0.00
2023-04-05T03:07:02.354Z,0.00
2023-04-05T03:08:02.391Z,0.00
2023-04-05T03:09:02.332Z,0.00
2023-04-05T03:10:02.328Z,0.00
2023-04-05T03:11:02.307Z,0.00
2023-04-05T03:12:02.294Z,0.00
2023-04-05T03:13:02.285Z,0.00
2023-04-05T03:14:02.296Z,0.00
2023-04-05T03:15:02.265Z,0.00
2023-04-05T03:16:02.253Z,0.00
2023-04-05T03:17:02.393Z,0.00
2023-04-05T03:18:02.255Z,0.00
2023-04-05T03:19:02.284Z,0.00
2023-04-05T03:20:02.207Z,0.00
2023-04-05T03:21:02.216Z,0.00
2023-04-05T03:22:02.182Z,0.00
2023-04-05T03:23:02.171Z,0.00
2023-04-05T03:24:02.182Z,0.00
2023-04-05T03:25:02.148Z,0.00
2023-04-05T03:26:02.140Z,0.00
2023-04-05T03:27:02.128Z,0.00
2023-04-05T03:28:02.116Z,0.00
2023-04-05T03:29:02.116Z,0.00
2023-04-05T03:30:02.168Z,0.00
2023-04-05T03:31:02.103Z,0.00
2023-04-05T03:32:02.075Z,0.00
2023-04-05T03:33:02.089Z,0.00
2023-04-05T03:34:02.053Z,0.00
2023-04-05T03:35:02.068Z,0.00
2023-04-05T03:36:02.078Z,0.00
2023-04-05T03:37:02.023Z,0.00
2023-04-05T03:38:02.005Z,0.00
2023-04-05T03:39:02.002Z,0.00
2023-04-05T03:40:02.049Z,0.00
2023-04-05T03:41:01.977Z,0.00
2023-04-05T03:42:01.961Z,0.00
2023-04-05T03:43:01.976Z,0.00
2023-04-05T03:44:01.940Z,0.00
2023-04-05T03:45:01.937Z,0.00
2023-04-05T03:46:01.992Z,0.00
2023-04-05T03:47:01.939Z,0.00
2023-04-05T03:48:01.907Z,0.00
2023-04-05T03:49:01.890Z,0.00
2023-04-05T03:50:01.882Z,0.00
2023-04-05T03:51:01.866Z,0.00
2023-04-05T03:52:01.858Z,0.00
2023-04-05T03:53:01.850Z,0.00
2023-04-05T03:54:01.834Z,0.00
2023-04-05T03:55:01.823Z,0.00
2023-04-05T03:56:01.816Z,0.00
2023-04-05T03:57:01.799Z,0.00
2023-04-05T03:58:01.792Z,0.00
2023-04-05T03:59:01.801Z,0.00
2023-04-05T04:00:01.784Z,0.00
2023-04-05T04:01:01.757Z,0.00
2023-04-05T04:02:01.960Z,0.00
2023-04-05T04:03:01.755Z,0.00
2023-04-05T04:04:01.718Z,0.00
2023-04-05T04:05:01.774Z,0.00
2023-04-05T04:06:01.769Z,0.00
2023-04-05T04:07:01.691Z,0.00
2023-04-05T04:08:01.676Z,0.00
2023-04-05T04:09:01.668Z,0.00
2023-04-05T04:10:01.669Z,0.00
2023-04-05T04:11:01.644Z,0.00
2023-04-05T04:12:01.633Z,0.00
2023-04-05T04:13:01.625Z,0.00
2023-04-05T04:14:01.612Z,0.00
2023-04-05T04:15:01.602Z,4.00
2023-04-05T04:16:01.620Z,4.00
2023-04-05T04:17:01.592Z,0.00
2023-04-05T04:18:01.630Z,0.00
2023-04-05T04:19:01.557Z,4.00
2023-04-05T04:20:01.548Z,4.00
2023-04-05T04:21:01.543Z,4.00
2023-04-05T04:22:01.532Z,8.00
2023-04-05T04:23:01.529Z,4.00
2023-04-05T04:24:01.503Z,8.00
2023-04-05T04:25:01.497Z,8.00
2023-04-05T04:26:01.482Z,12.00
2023-04-05T04:27:01.470Z,12.00
2023-04-05T04:28:01.460Z,12.00
2023-04-05T04:29:01.453Z,20.00
2023-04-05T04:30:01.491Z,20.00
2023-04-05T04:31:01.425Z,24.00
2023-04-05T04:32:01.452Z,28.00
2023-04-05T04:33:01.423Z,32.00
2023-04-05T04:34:01.424Z,36.00
2023-04-05T04:35:01.384Z,48.00
2023-04-05T04:36:01.400Z,56.00
2023-04-05T04:37:01.359Z,64.00
2023-04-05T04:38:01.350Z,76.00
2023-04-05T04:39:01.342Z,88.00
2023-04-05T04:40:01.350Z,100.00
2023-04-05T04:41:01.317Z,112.00
2023-04-05T04:42:01.310Z,128.00
2023-04-05T04:43:01.296Z,144.00
2023-04-05T04:44:01.338Z,164.00
2023-04-05T04:45:01.291Z,184.00
2023-04-05T04:46:01.352Z,204.00
2023-04-05T04:47:01.255Z,228.00
2023-04-05T04:48:01.377Z,248.00
2023-04-05T04:49:01.233Z,276.00
2023-04-05T04:50:01.253Z,308.00
2023-04-05T04:51:01.211Z,336.00
2023-04-05T04:52:01.198Z,368.00
2023-04-05T04:53:01.189Z,400.00
2023-04-05T04:54:01.248Z,436.00
2023-04-05T04:55:01.166Z,472.00
2023-04-05T04:56:01.165Z,508.00
2023-04-05T04:57:01.143Z,548.00
2023-04-05T04:58:01.134Z,588.00
2023-04-05T04:59:01.184Z,628.00
2023-04-05T05:00:01.112Z,672.00
2023-04-05T05:01:01.116Z,720.00
2023-04-05T05:02:01.094Z,760.00
2023-04-05T05:03:01.110Z,812.00
2023-04-05T05:04:01.079Z,856.00
2023-04-05T05:05:01.077Z,904.00
2023-04-05T05:06:01.075Z,952.00
2023-04-05T05:07:01.037Z,1004.00
2023-04-05T05:08:01.031Z,1056.00
2023-04-05T05:09:01.015Z,1104.00
2023-04-05T05:10:01.022Z,1156.00
2023-04-05T05:11:01.002Z,1208.00
2023-04-05T05:12:01.001Z,1256.00
2023-04-05T05:13:00.971Z,1308.00
2023-04-05T05:14:00.970Z,1360.00
2023-04-05T05:15:00.950Z,1412.00
2023-04-05T05:16:00.942Z,1468.00
2023-04-05T05:17:01.039Z,1520.00
2023-04-05T05:18:01.003Z,1576.00
2023-04-05T05:19:00.910Z,1628.00
2023-04-05T05:20:00.909Z,1680.00
2023-04-05T05:21:00.885Z,1736.00
2023-04-05T05:22:00.898Z,1788.00
2023-04-05T05:23:00.866Z,1840.00
2023-04-05T05:24:00.853Z,1896.00
2023-04-05T05:25:00.842Z,1952.00
2023-04-05T05:26:00.837Z,2004.00
2023-04-05T05:27:00.820Z,2056.00
2023-04-05T05:28:00.811Z,2104.00
2023-04-05T05:29:00.804Z,2156.00
2023-04-05T05:30:00.800Z,2208.00
2023-04-05T05:31:00.807Z,2256.00
2023-04-05T05:32:00.767Z,2304.00
2023-04-05T05:33:00.795Z,2352.00
2023-04-05T05:34:00.747Z,2404.00
2023-04-05T05:35:00.735Z,2448.00
2023-04-05T05:36:00.767Z,2500.00
2023-04-05T05:37:00.718Z,2548.00
2023-04-05T05:38:00.727Z,2604.00
2023-04-05T05:39:00.688Z,2656.00
2023-04-05T05:40:00.716Z,2720.00
2023-04-05T05:41:00.671Z,2788.00
2023-04-05T05:42:00.654Z,2848.00
2023-04-05T05:43:00.647Z,2916.00
2023-04-05T05:44:00.634Z,2972.00
2023-04-05T05:45:00.641Z,3032.00
2023-04-05T05:46:00.637Z,3088.00
2023-04-05T05:47:00.601Z,3432.00
2023-04-05T05:48:00.658Z,4216.00
2023-04-05T05:49:00.575Z,4372.00
2023-04-05T05:50:00.570Z,4100.00
2023-04-05T05:51:00.556Z,3804.00
2023-04-05T05:52:00.564Z,3784.00
2023-04-05T05:53:01.804Z,3460.00
2023-04-05T05:54:00.554Z,3436.00
2023-04-05T05:55:00.515Z,3648.00
2023-04-05T05:56:00.513Z,4440.00
2023-04-05T05:57:00.511Z,5684.00
2023-04-05T05:58:00.496Z,5900.00
2023-04-05T05:59:00.532Z,5560.00
2023-04-05T06:00:00.478Z,6484.00
2023-04-05T06:01:00.452Z,7508.00
2023-04-05T06:02:00.435Z,7784.00
2023-04-05T06:03:00.472Z,7000.00
2023-04-05T06:04:00.562Z,6552.00
2023-04-05T06:05:00.432Z,7024.00
2023-04-05T06:06:00.406Z,6344.00
2023-04-05T06:07:00.380Z,5064.00
2023-04-05T06:08:00.378Z,5164.00
2023-04-05T06:09:00.362Z,5376.00
2023-04-05T06:10:00.374Z,5248.00
2023-04-05T06:11:00.347Z,5528.00
2023-04-05T06:12:00.325Z,5980.00
2023-04-05T06:13:00.311Z,6252.00
2023-04-05T06:14:00.303Z,6568.00
2023-04-05T06:15:00.297Z,6460.00
2023-04-05T06:16:00.323Z,6768.00
2023-04-05T06:17:00.277Z,6952.00
2023-04-05T06:18:00.326Z,7564.00
2023-04-05T06:19:00.329Z,7868.00
2023-04-05T06:20:00.240Z,8208.00
2023-04-05T06:21:00.225Z,8516.00
2023-04-05T06:22:00.215Z,8964.00
2023-04-05T06:23:00.203Z,8880.00
2023-04-05T06:24:00.191Z,8916.00
2023-04-05T06:25:00.212Z,9692.00
2023-04-05T06:26:00.197Z,9904.00
2023-04-05T06:27:00.195Z,9548.00
2023-04-05T06:28:00.197Z,9048.00
2023-04-05T06:29:00.174Z,9328.00
2023-04-05T06:30:00.280Z,9764.00
2023-04-05T06:31:00.235Z,10072.00
2023-04-05T06:32:00.258Z,10384.00
2023-04-05T06:33:00.187Z,10964.00
2023-04-05T06:34:00.214Z,10800.00
2023-04-05T06:35:00.434Z,10668.00
2023-04-05T06:36:00.092Z,11032.00
2023-04-05T06:37:00.048Z,11140.00
2023-04-05T06:38:00.073Z,11356.00
2023-04-05T06:39:00.048Z,11676.00
2023-04-05T06:40:00.022Z,12080.00
2023-04-05T06:40:59.998Z,12968.00
2023-04-05T06:42:00.044Z,12916.00
2023-04-05T06:42:59.989Z,12848.00
2023-04-05T06:43:59.964Z,13220.00
2023-04-05T06:44:59.961Z,13660.00
2023-04-05T06:46:00.044Z,14184.00
2023-04-05T06:46:59.933Z,15132.00
2023-04-05T06:47:59.941Z,15840.00
2023-04-05T06:49:02.256Z,16128.00
2023-04-05T06:49:59.906Z,16576.00
2023-04-05T06:50:59.884Z,16416.00
2023-04-05T06:51:59.876Z,16800.00
2023-04-05T06:52:59.866Z,16704.00
2023-04-05T06:53:59.857Z,16832.00
2023-04-05T06:54:59.838Z,17408.00
2023-04-05T06:55:59.827Z,18016.00
2023-04-05T06:57:01.809Z,18400.00
2023-04-05T06:57:59.859Z,18848.00
2023-04-05T06:58:59.824Z,19488.00
2023-04-05T06:59:59.786Z,20224.00
2023-04-05T07:00:59.803Z,20672.00
2023-04-05T07:01:59.785Z,20896.00
2023-04-05T07:02:59.794Z,20864.00
2023-04-05T07:03:59.777Z,21248.00
2023-04-05T07:04:59.730Z,21728.00
2023-04-05T07:05:59.718Z,22080.00
2023-04-05T07:06:59.704Z,21824.00
2023-04-05T07:07:59.712Z,22368.00
2023-04-05T07:08:59.686Z,22528.00
2023-04-05T07:09:59.716Z,22912.00
2023-04-05T07:10:59.657Z,23168.00
2023-04-05T07:11:59.650Z,23520.00
2023-04-05T07:12:59.639Z,23808.00
2023-04-05T07:13:59.650Z,24288.00
2023-04-05T07:14:59.618Z,24992.00
2023-04-05T07:15:59.641Z,26400.00
2023-04-05T07:16:59.619Z,27424.00
2023-04-05T07:17:59.612Z,28128.00
2023-04-05T07:18:59.566Z,28640.00
2023-04-05T07:19:59.562Z,28480.00
2023-04-05T07:20:59.547Z,28064.00
2023-04-05T07:21:59.539Z,28416.00
2023-04-05T07:22:59.524Z,28992.00
2023-04-05T07:23:59.514Z,28864.00
2023-04-05T07:24:59.501Z,27936.00
2023-04-05T07:25:59.500Z,28064.00
2023-04-05T07:26:59.477Z,27840.00
2023-04-05T07:27:59.469Z,28832.00
2023-04-05T07:28:59.462Z,29376.00
2023-04-05T07:29:59.474Z,28608.00
2023-04-05T07:30:59.438Z,29376.00
2023-04-05T07:31:59.458Z,29312.00
2023-04-05T07:32:59.431Z,28608.00
2023-04-05T07:33:59.402Z,28672.00
2023-04-05T07:34:59.419Z,29184.00
2023-04-05T07:35:59.404Z,30240.00
2023-04-05T07:36:59.367Z,30944.00
2023-04-05T07:37:59.355Z,30592.00
2023-04-05T07:38:59.355Z,30048.00
2023-04-05T07:39:59.333Z,30560.00
2023-04-05T07:40:59.335Z,32064.00
2023-04-05T07:41:59.316Z,32320.00
2023-04-05T07:42:59.301Z,31392.00
2023-04-05T07:43:59.292Z,30784.00
2023-04-05T07:44:59.277Z,30592.00
2023-04-05T07:45:59.309Z,30656.00
2023-04-05T07:46:59.272Z,30912.00
2023-04-05T07:47:59.275Z,31232.00
2023-04-05T07:48:59.231Z,31456.00
2023-04-05T07:49:59.228Z,32192.00
2023-04-05T07:50:59.210Z,32352.00
2023-04-05T07:51:59.211Z,32672.00
2023-04-05T07:52:59.185Z,33280.00
2023-04-05T07:54:00.700Z,33792.00
2023-04-05T07:54:59.167Z,33920.00
2023-04-05T07:55:59.194Z,33824.00
2023-04-05T07:56:59.145Z,33824.00
2023-04-05T07:57:59.134Z,34336.00
2023-04-05T07:58:59.166Z,34752.00
2023-04-05T07:59:59.109Z,34720.00
2023-04-05T08:00:59.101Z,35200.00
2023-04-05T08:02:04.974Z,35680.00
2023-04-05T08:03:02.036Z,35296.00
2023-04-05T08:03:59.249Z,35232.00
2023-04-05T08:04:59.111Z,35680.00
2023-04-05T08:05:59.040Z,35840.00
2023-04-05T08:06:59.029Z,35616.00
2023-04-05T08:07:59.025Z,35648.00
2023-04-05T08:08:59.012Z,36384.00
2023-04-05T08:09:59.008Z,36384.00
2023-04-05T08:10:58.986Z,36576.00
2023-04-05T08:11:58.975Z,37024.00
2023-04-05T08:12:58.965Z,37472.00
2023-04-05T08:13:58.975Z,38080.00
2023-04-05T08:14:58.946Z,38048.00
2023-04-05T08:15:59.043Z,38496.00
2023-04-05T08:16:58.915Z,39424.00
2023-04-05T08:17:59.035Z,40032.00
2023-04-05T08:18:58.906Z,40352.00
2023-04-05T08:19:58.883Z,41024.00
2023-04-05T08:20:58.892Z,41856.00
2023-04-05T08:21:58.868Z,42080.00
2023-04-05T08:22:58.848Z,42656.00
2023-04-05T08:23:58.863Z,42336.00
2023-04-05T08:24:58.862Z,42432.00
2023-04-05T08:25:58.825Z,43168.00
2023-04-05T08:26:58.805Z,42880.00
2023-04-05T08:27:58.796Z,43200.00
2023-04-05T08:28:58.782Z,43328.00
2023-04-05T08:29:58.801Z,43168.00
2023-04-05T08:30:58.788Z,43328.00
2023-04-05T08:31:58.889Z,43584.00
2023-04-05T08:32:58.841Z,45056.00
2023-04-05T08:33:58.831Z,46336.00
2023-04-05T08:34:58.716Z,46752.00
2023-04-05T08:35:58.749Z,47488.00
2023-04-05T08:36:58.700Z,47424.00
2023-04-05T08:37:58.683Z,46464.00
2023-04-05T08:38:58.669Z,46656.00
2023-04-05T08:39:58.661Z,46816.00
2023-04-05T08:40:58.659Z,47168.00
2023-04-05T08:41:58.640Z,47776.00
2023-04-05T08:42:58.623Z,48192.00
2023-04-05T08:43:58.616Z,48224.00
2023-04-05T08:44:58.606Z,48320.00
2023-04-05T08:45:58.706Z,48256.00
2023-04-05T08:46:58.631Z,48736.00
2023-04-05T08:47:58.609Z,49568.00
2023-04-05T08:48:58.572Z,49984.00
2023-04-05T08:49:58.586Z,51136.00
2023-04-05T08:50:58.550Z,52736.00
2023-04-05T08:51:58.533Z,53632.00
2023-04-05T08:52:58.535Z,55360.00
2023-04-05T08:53:58.526Z,56480.00
2023-04-05T08:54:58.516Z,58432.00
2023-04-05T08:55:58.505Z,60320.00
2023-04-05T08:56:58.559Z,63808.00
2023-04-05T08:57:58.464Z,64128.00
2023-04-05T08:58:58.576Z,63104.00
2023-04-05T08:59:58.445Z,62976.00
2023-04-05T09:00:58.481Z,62720.00
2023-04-05T09:01:59.331Z,62912.00
2023-04-05T09:02:58.500Z,63520.00
2023-04-05T09:03:58.403Z,64832.00
2023-04-05T09:04:58.386Z,64736.00
2023-04-05T09:05:58.407Z,65440.00
2023-04-05T09:06:58.399Z,65408.00
2023-04-05T09:07:58.361Z,64576.00
2023-04-05T09:08:58.343Z,62976.00
2023-04-05T09:09:58.330Z,62784.00
2023-04-05T09:10:58.320Z,61760.00
2023-04-05T09:11:58.308Z,62016.00
2023-04-05T09:12:58.299Z,62080.00
2023-04-05T09:13:58.293Z,63552.00
2023-04-05T09:14:58.449Z,61440.00
2023-04-05T09:15:58.275Z,64064.00
2023-04-05T09:16:58.361Z,62976.00
2023-04-05T09:17:58.339Z,64032.00
2023-04-05T09:18:58.245Z,65984.00
2023-04-05T09:19:58.225Z,65248.00
2023-04-05T09:20:58.216Z,68288.00
2023-04-05T09:21:58.234Z,67424.00
2023-04-05T09:22:58.192Z,68032.00
2023-04-05T09:23:58.177Z,64992.00
2023-04-05T09:24:58.183Z,64640.00
2023-04-05T09:25:58.163Z,64896.00
2023-04-05T09:26:58.201Z,63488.00
2023-04-05T09:27:58.138Z,62656.00
2023-04-05T09:28:58.129Z,63264.00
2023-04-05T09:29:58.125Z,59040.00
2023-04-05T09:30:58.107Z,59616.00
2023-04-05T09:31:58.123Z,57760.00
2023-04-05T09:32:58.110Z,56160.00
2023-04-05T09:33:58.082Z,59296.00
2023-04-05T09:34:58.061Z,58208.00
2023-04-05T09:35:58.060Z,59936.00
2023-04-05T09:36:58.095Z,59680.00
2023-04-05T09:37:58.057Z,58624.00
2023-04-05T09:38:58.017Z,58464.00
2023-04-05T09:39:58.005Z,59872.00
2023-04-05T09:40:58.010Z,60192.00
2023-04-05T09:41:57.983Z,60736.00
2023-04-05T09:42:57.978Z,60224.00
2023-04-05T09:43:57.962Z,59904.00
2023-04-05T09:44:57.972Z,59296.00
2023-04-05T09:45:57.958Z,60416.00
2023-04-05T09:46:57.971Z,61696.00
2023-04-05T09:47:58.205Z,63520.00
2023-04-05T09:48:57.924Z,64480.00
2023-04-05T09:49:57.896Z,63520.00
2023-04-05T09:51:03.714Z,63072.00
2023-04-05T09:51:57.874Z,62976.00
2023-04-05T09:52:57.864Z,63392.00
2023-04-05T09:53:57.877Z,62464.00
2023-04-05T09:54:57.862Z,65472.00
2023-04-05T09:55:57.825Z,62464.00
2023-04-05T09:56:57.963Z,59552.00
2023-04-05T09:57:57.826Z,59168.00
2023-04-05T09:58:57.834Z,57248.00
2023-04-05T09:59:57.780Z,59232.00
2023-04-05T10:01:09.726Z,57088.00
2023-04-05T10:01:58.818Z,61184.00
2023-04-05T10:02:57.887Z,61408.00
2023-04-05T10:03:57.838Z,61472.00
2023-04-05T10:04:57.735Z,60352.00
2023-04-05T10:05:57.723Z,63072.00
2023-04-05T10:06:57.753Z,64032.00
2023-04-05T10:07:57.687Z,64416.00
2023-04-05T10:08:57.694Z,65792.00
2023-04-05T10:09:57.697Z,66976.00
2023-04-05T10:10:57.669Z,66208.00
2023-04-05T10:11:57.644Z,64192.00
2023-04-05T10:12:57.644Z,63968.00
2023-04-05T10:13:57.623Z,62176.00
2023-04-05T10:14:57.618Z,62432.00
2023-04-05T10:15:57.662Z,60320.00
2023-04-05T10:16:57.645Z,64000.00
2023-04-05T10:17:57.592Z,63712.00
2023-04-05T10:18:57.567Z,65088.00
2023-04-05T10:19:57.573Z,62272.00
2023-04-05T10:20:57.568Z,63136.00
2023-04-05T10:21:57.560Z,65184.00
2023-04-05T10:22:57.566Z,61280.00
2023-04-05T10:23:57.569Z,62528.00
2023-04-05T10:24:57.508Z,62080.00
2023-04-05T10:25:57.580Z,58368.00
2023-04-05T10:26:57.554Z,60672.00
2023-04-05T10:27:57.467Z,56384.00
2023-04-05T10:28:57.491Z,61952.00
2023-04-05T10:29:57.448Z,61504.00
2023-04-05T10:30:57.454Z,62336.00
2023-04-05T10:31:57.477Z,66112.00
2023-04-05T10:32:57.569Z,66208.00
2023-04-05T10:33:57.438Z,68832.00
2023-04-05T10:34:57.462Z,68576.00
2023-04-05T10:35:57.396Z,69312.00
2023-04-05T10:36:57.522Z,66080.00
2023-04-05T10:37:57.359Z,68512.00
2023-04-05T10:38:58.858Z,69792.00
2023-04-05T10:39:57.429Z,68128.00
2023-04-05T10:40:57.352Z,71744.00
2023-04-05T10:41:57.364Z,73664.00
2023-04-05T10:42:57.331Z,71424.00
2023-04-05T10:43:57.330Z,70048.00
2023-04-05T10:44:57.320Z,73760.00
2023-04-05T10:45:57.379Z,72704.00
2023-04-05T10:46:57.396Z,70784.00
2023-04-05T10:47:57.297Z,72672.00
2023-04-05T10:48:57.249Z,73792.00
2023-04-05T10:49:57.229Z,72448.00
2023-04-05T10:50:57.226Z,73696.00
2023-04-05T10:51:57.212Z,77472.00
2023-04-05T10:52:57.193Z,77984.00
2023-04-05T10:53:57.183Z,75904.00
2023-04-05T10:54:57.200Z,72608.00
2023-04-05T10:55:57.165Z,75968.00
2023-04-05T10:56:57.198Z,73664.00
2023-04-05T10:57:57.163Z,75136.00
2023-04-05T10:58:57.159Z,77152.00
2023-04-05T10:59:57.158Z,77344.00
2023-04-05T11:00:57.167Z,80160.00
2023-04-05T11:01:57.195Z,76992.00
2023-04-05T11:02:57.182Z,79200.00
2023-04-05T11:03:57.258Z,78816.00
2023-04-05T11:04:57.373Z,79680.00
2023-04-05T11:05:57.055Z,79744.00
2023-04-05T11:06:57.042Z,81920.00
2023-04-05T11:07:57.032Z,82688.00
2023-04-05T11:08:57.031Z,82112.00
2023-04-05T11:09:57.048Z,85792.00
2023-04-05T11:10:57.025Z,83808.00
2023-04-05T11:11:56.993Z,84608.00
2023-04-05T11:12:56.981Z,87200.00
2023-04-05T11:13:56.999Z,84736.00
2023-04-05T11:14:56.961Z,87328.00
2023-04-05T11:15:56.948Z,82848.00
2023-04-05T11:16:57.231Z,81536.00
2023-04-05T11:17:56.990Z,83872.00
2023-04-05T11:18:56.920Z,83488.00
2023-04-05T11:19:56.905Z,84096.00
2023-04-05T11:20:56.895Z,86304.00
2023-04-05T11:21:56.884Z,86112.00
2023-04-05T11:22:56.875Z,86304.00
2023-04-05T11:23:56.864Z,86944.00
2023-04-05T11:24:56.856Z,84384.00
2023-04-05T11:25:56.842Z,91104.00
2023-04-05T11:26:56.840Z,85408.00
2023-04-05T11:27:56.821Z,81856.00
2023-04-05T11:28:56.809Z,83072.00
2023-04-05T11:29:56.826Z,82464.00
2023-04-05T11:30:57.214Z,78592.00
2023-04-05T11:31:56.780Z,81024.00
2023-04-05T11:32:56.843Z,86944.00
2023-04-05T11:33:57.999Z,81344.00
2023-04-05T11:34:56.750Z,82272.00
2023-04-05T11:35:56.760Z,86784.00
2023-04-05T11:36:56.723Z,77440.00
2023-04-05T11:37:56.714Z,80160.00
2023-04-05T11:38:56.727Z,79968.00
2023-04-05T11:39:56.687Z,78688.00
2023-04-05T11:40:56.683Z,76544.00
2023-04-05T11:41:56.671Z,76704.00
2023-04-05T11:42:56.665Z,74304.00
2023-04-05T11:43:56.645Z,74528.00
2023-04-05T11:44:56.633Z,66624.00
2023-04-05T11:45:56.648Z,53536.00
2023-04-05T11:46:56.636Z,47648.00
2023-04-05T11:47:56.661Z,54432.00
2023-04-05T11:48:56.600Z,67264.00
2023-04-05T11:49:56.592Z,76992.00
2023-04-05T11:50:56.571Z,78272.00
2023-04-05T11:51:56.570Z,74336.00
2023-04-05T11:52:56.563Z,80672.00
2023-04-05T11:53:56.539Z,78784.00
2023-04-05T11:54:56.545Z,78688.00
2023-04-05T11:55:56.520Z,82464.00
2023-04-05T11:56:56.506Z,79072.00
2023-04-05T11:57:56.491Z,79904.00
2023-04-05T11:58:56.501Z,80704.00
2023-04-05T11:59:56.467Z,75104.00
2023-04-05T12:00:56.460Z,79392.00
2023-04-05T12:01:56.475Z,77472.00
2023-04-05T12:02:56.499Z,72608.00
2023-04-05T12:03:56.576Z,75072.00
2023-04-05T12:04:56.461Z,74720.00
2023-04-05T12:05:56.407Z,72992.00
2023-04-05T12:06:56.409Z,74816.00
2023-04-05T12:07:56.381Z,75392.00
2023-04-05T12:08:56.364Z,73472.00
2023-04-05T12:09:56.355Z,76256.00
2023-04-05T12:10:56.375Z,74400.00
2023-04-05T12:11:56.338Z,75168.00
2023-04-05T12:12:56.327Z,76512.00
2023-04-05T12:13:56.313Z,72736.00
2023-04-05T12:14:56.302Z,73792.00
2023-04-05T12:15:56.325Z,73600.00
2023-04-05T12:16:56.314Z,75328.00
2023-04-05T12:17:56.324Z,78240.00
2023-04-05T12:18:56.295Z,76128.00
2023-04-05T12:19:56.262Z,75680.00
2023-04-05T12:20:56.256Z,77760.00